sensor_id;sensor_type;location;lat;lon;timestamp;P1;durP1;ratioP1;P2;durP2;ratioP2
11328;SDS011;5719;42.714;23.732;2023-02-02T00:01:44;7.90;;;4.40;;
11328;SDS011;5719;42.714;23.732;2023-02-02T00:04:13;10.82;;;5.20;;
11328;SDS011;5719;42.714;23.732;2023-02-02T00:06:42;11.30;;;6.20;;
11328;SDS011;5719;42.714;23.732;2023-02-02T00:09:11;10.68;;;5.63;;
11328;SDS011;5719;42.714;23.732;2023-02-02T00:11:39;13.77;;;5.88;;
11328;SDS011;5719;42.714;23.732;2023-02-02T00:14:06;13.95;;;6.72;;
11328;SDS011;5719;42.714;23.732;2023-02-02T00:16:36;13.10;;;6.88;;
11328;SDS011;5719;42.714;23.732;2023-02-02T00:19:06;12.32;;;6.60;;
11328;SDS011;5719;42.714;23.732;2023-02-02T00:21:34;14.38;;;6.63;;
11328;SDS011;5719;42.714;23.732;2023-02-02T00:24:02;12.38;;;6.70;;
11328;SDS011;5719;42.714;23.732;2023-02-02T00:26:29;12.38;;;6.78;;
11328;SDS011;5719;42.714;23.732;2023-02-02T00:28:56;17.48;;;7.70;;
11328;SDS011;5719;42.714;23.732;2023-02-02T00:31:23;14.65;;;7.75;;
11328;SDS011;5719;42.714;23.732;2023-02-02T00:33:52;14.55;;;6.80;;
11328;SDS011;5719;42.714;23.732;2023-02-02T00:36:19;15.00;;;7.53;;
11328;SDS011;5719;42.714;23.732;2023-02-02T00:38:46;14.98;;;6.88;;
11328;SDS011;5719;42.714;23.732;2023-02-02T00:41:14;11.70;;;7.00;;
11328;SDS011;5719;42.714;23.732;2023-02-02T00:43:41;10.80;;;6.68;;
11328;SDS011;5719;42.714;23.732;2023-02-02T00:46:08;12.65;;;6.28;;
11328;SDS011;5719;42.714;23.732;2023-02-02T00:48:37;13.38;;;6.88;;
11328;SDS011;5719;42.714;23.732;2023-02-02T00:51:06;11.98;;;6.53;;
11328;SDS011;5719;42.714;23.732;2023-02-02T00:53:33;15.02;;;6.82;;
11328;SDS011;5719;42.714;23.732;2023-02-02T00:56:00;9.82;;;6.30;;
11328;SDS011;5719;42.714;23.732;2023-02-02T00:58:26;12.85;;;6.38;;
11328;SDS011;5719;42.714;23.732;2023-02-02T01:00:53;12.52;;;6.63;;
11328;SDS011;5719;42.714;23.732;2023-02-02T01:03:20;16.00;;;7.35;;
11328;SDS011;5719;42.714;23.732;2023-02-02T01:05:47;16.35;;;6.82;;
11328;SDS011;5719;42.714;23.732;2023-02-02T01:08:17;14.38;;;7.28;;
11328;SDS011;5719;42.714;23.732;2023-02-02T01:10:44;14.77;;;7.00;;
11328;SDS011;5719;42.714;23.732;2023-02-02T01:13:11;16.63;;;6.85;;
11328;SDS011;5719;42.714;23.732;2023-02-02T01:15:38;15.23;;;6.47;;
11328;SDS011;5719;42.714;23.732;2023-02-02T01:18:04;12.48;;;6.35;;
11328;SDS011;5719;42.714;23.732;2023-02-02T01:20:31;12.40;;;6.57;;
11328;SDS011;5719;42.714;23.732;2023-02-02T01:22:59;10.55;;;6.53;;
11328;SDS011;5719;42.714;23.732;2023-02-02T01:25:27;9.55;;;5.43;;
11328;SDS011;5719;42.714;23.732;2023-02-02T01:27:54;11.30;;;5.85;;
11328;SDS011;5719;42.714;23.732;2023-02-02T01:30:21;12.77;;;5.93;;
11328;SDS011;5719;42.714;23.732;2023-02-02T01:32:48;8.68;;;5.22;;
11328;SDS011;5719;42.714;23.732;2023-02-02T01:35:15;9.23;;;5.72;;
11328;SDS011;5719;42.714;23.732;2023-02-02T01:37:42;10.60;;;5.53;;
11328;SDS011;5719;42.714;23.732;2023-02-02T01:40:09;10.70;;;5.60;;
11328;SDS011;5719;42.714;23.732;2023-02-02T01:42:38;8.55;;;4.70;;
11328;SDS011;5719;42.714;23.732;2023-02-02T01:45:23;8.65;;;4.60;;
11328;SDS011;5719;42.714;23.732;2023-02-02T01:47:51;12.55;;;5.07;;
11328;SDS011;5719;42.714;23.732;2023-02-02T01:50:21;9.02;;;4.90;;
11328;SDS011;5719;42.714;23.732;2023-02-02T01:52:52;11.27;;;5.25;;
11328;SDS011;5719;42.714;23.732;2023-02-02T01:55:21;9.52;;;5.13;;
11328;SDS011;5719;42.714;23.732;2023-02-02T01:57:52;7.88;;;4.75;;
11328;SDS011;5719;42.714;23.732;2023-02-02T02:00:22;13.80;;;5.15;;
11328;SDS011;5719;42.714;23.732;2023-02-02T02:02:52;9.98;;;4.90;;
11328;SDS011;5719;42.714;23.732;2023-02-02T02:05:24;10.35;;;4.70;;
11328;SDS011;5719;42.714;23.732;2023-02-02T02:07:56;8.05;;;4.45;;
11328;SDS011;5719;42.714;23.732;2023-02-02T02:10:29;7.13;;;4.50;;
11328;SDS011;5719;42.714;23.732;2023-02-02T02:12:57;8.35;;;4.38;;
11328;SDS011;5719;42.714;23.732;2023-02-02T02:15:24;13.93;;;4.55;;
11328;SDS011;5719;42.714;23.732;2023-02-02T02:18:29;9.32;;;4.20;;
11328;SDS011;5719;42.714;23.732;2023-02-02T02:21:14;10.57;;;4.35;;
11328;SDS011;5719;42.714;23.732;2023-02-02T02:31:07;6.13;;;4.65;;
11328;SDS011;5719;42.714;23.732;2023-02-02T02:33:55;11.20;;;4.50;;
11328;SDS011;5719;42.714;23.732;2023-02-02T02:36:26;8.68;;;4.57;;
11328;SDS011;5719;42.714;23.732;2023-02-02T02:39:04;7.47;;;4.35;;
11328;SDS011;5719;42.714;23.732;2023-02-02T02:41:38;7.65;;;4.43;;
11328;SDS011;5719;42.714;23.732;2023-02-02T02:44:09;8.07;;;4.57;;
11328;SDS011;5719;42.714;23.732;2023-02-02T02:46:39;6.72;;;4.05;;
11328;SDS011;5719;42.714;23.732;2023-02-02T02:49:08;8.32;;;3.80;;
11328;SDS011;5719;42.714;23.732;2023-02-02T02:51:41;9.70;;;4.72;;
11328;SDS011;5719;42.714;23.732;2023-02-02T02:54:10;10.18;;;4.20;;
11328;SDS011;5719;42.714;23.732;2023-02-02T02:56:41;9.27;;;3.88;;
11328;SDS011;5719;42.714;23.732;2023-02-02T02:59:20;4.88;;;3.50;;
11328;SDS011;5719;42.714;23.732;2023-02-02T03:02:03;6.78;;;4.00;;
11328;SDS011;5719;42.714;23.732;2023-02-02T03:04:45;6.47;;;3.83;;
11328;SDS011;5719;42.714;23.732;2023-02-02T03:07:20;13.13;;;5.88;;
11328;SDS011;5719;42.714;23.732;2023-02-02T03:09:51;12.77;;;6.47;;
11328;SDS011;5719;42.714;23.732;2023-02-02T03:12:22;15.77;;;5.78;;
11328;SDS011;5719;42.714;23.732;2023-02-02T03:14:49;19.65;;;7.78;;
11328;SDS011;5719;42.714;23.732;2023-02-02T03:17:16;18.23;;;7.32;;
11328;SDS011;5719;42.714;23.732;2023-02-02T03:19:44;16.17;;;7.03;;
11328;SDS011;5719;42.714;23.732;2023-02-02T03:22:11;15.98;;;6.72;;
11328;SDS011;5719;42.714;23.732;2023-02-02T03:24:38;17.73;;;6.60;;
11328;SDS011;5719;42.714;23.732;2023-02-02T03:27:05;11.52;;;5.45;;
11328;SDS011;5719;42.714;23.732;2023-02-02T03:29:31;12.57;;;5.20;;
11328;SDS011;5719;42.714;23.732;2023-02-02T03:31:58;10.98;;;5.10;;
11328;SDS011;5719;42.714;23.732;2023-02-02T03:34:25;9.07;;;4.80;;
11328;SDS011;5719;42.714;23.732;2023-02-02T03:36:54;10.55;;;4.68;;
11328;SDS011;5719;42.714;23.732;2023-02-02T03:39:21;9.40;;;4.28;;
11328;SDS011;5719;42.714;23.732;2023-02-02T03:41:48;9.18;;;4.50;;
11328;SDS011;5719;42.714;23.732;2023-02-02T03:44:14;11.93;;;5.22;;
11328;SDS011;5719;42.714;23.732;2023-02-02T03:46:41;9.20;;;5.07;;
11328;SDS011;5719;42.714;23.732;2023-02-02T03:49:08;8.88;;;4.65;;
11328;SDS011;5719;42.714;23.732;2023-02-02T03:51:35;12.90;;;5.15;;
11328;SDS011;5719;42.714;23.732;2023-02-02T03:54:03;12.60;;;4.90;;
11328;SDS011;5719;42.714;23.732;2023-02-02T03:56:30;11.85;;;6.45;;
11328;SDS011;5719;42.714;23.732;2023-02-02T03:58:57;10.65;;;5.80;;
11328;SDS011;5719;42.714;23.732;2023-02-02T04:01:25;9.60;;;5.70;;
11328;SDS011;5719;42.714;23.732;2023-02-02T04:03:54;12.73;;;6.63;;
11328;SDS011;5719;42.714;23.732;2023-02-02T04:06:21;13.35;;;7.13;;
11328;SDS011;5719;42.714;23.732;2023-02-02T04:08:48;15.85;;;7.53;;
11328;SDS011;5719;42.714;23.732;2023-02-02T04:11:16;21.27;;;9.18;;
11328;SDS011;5719;42.714;23.732;2023-02-02T04:13:44;21.75;;;9.45;;
11328;SDS011;5719;42.714;23.732;2023-02-02T04:16:11;14.63;;;7.70;;
11328;SDS011;5719;42.714;23.732;2023-02-02T04:18:38;9.95;;;5.95;;
11328;SDS011;5719;42.714;23.732;2023-02-02T04:21:05;10.10;;;5.57;;
11328;SDS011;5719;42.714;23.732;2023-02-02T04:23:33;8.05;;;4.72;;
11328;SDS011;5719;42.714;23.732;2023-02-02T04:26:00;9.85;;;4.32;;
11328;SDS011;5719;42.714;23.732;2023-02-02T04:28:29;7.05;;;4.30;;
11328;SDS011;5719;42.714;23.732;2023-02-02T04:30:56;10.25;;;4.20;;
11328;SDS011;5719;42.714;23.732;2023-02-02T04:33:24;11.63;;;4.72;;
11328;SDS011;5719;42.714;23.732;2023-02-02T04:35:52;5.85;;;3.63;;
11328;SDS011;5719;42.714;23.732;2023-02-02T04:38:19;7.85;;;3.72;;
11328;SDS011;5719;42.714;23.732;2023-02-02T04:40:46;4.85;;;3.38;;
11328;SDS011;5719;42.714;23.732;2023-02-02T04:43:13;4.65;;;3.15;;
11328;SDS011;5719;42.714;23.732;2023-02-02T04:45:42;4.47;;;3.40;;
11328;SDS011;5719;42.714;23.732;2023-02-02T04:48:09;6.47;;;3.90;;
11328;SDS011;5719;42.714;23.732;2023-02-02T04:50:36;10.80;;;4.68;;
11328;SDS011;5719;42.714;23.732;2023-02-02T04:53:03;9.60;;;4.75;;
11328;SDS011;5719;42.714;23.732;2023-02-02T04:55:30;8.70;;;4.47;;
11328;SDS011;5719;42.714;23.732;2023-02-02T04:58:01;10.07;;;4.93;;
11328;SDS011;5719;42.714;23.732;2023-02-02T05:00:27;11.30;;;4.85;;
11328;SDS011;5719;42.714;23.732;2023-02-02T05:02:56;11.10;;;4.88;;
11328;SDS011;5719;42.714;23.732;2023-02-02T05:05:22;5.88;;;3.63;;
11328;SDS011;5719;42.714;23.732;2023-02-02T05:07:49;20.50;;;9.38;;
11328;SDS011;5719;42.714;23.732;2023-02-02T05:10:16;24.83;;;10.77;;
11328;SDS011;5719;42.714;23.732;2023-02-02T05:12:43;12.07;;;7.47;;
11328;SDS011;5719;42.714;23.732;2023-02-02T05:15:10;12.23;;;6.03;;
11328;SDS011;5719;42.714;23.732;2023-02-02T05:17:37;9.73;;;4.80;;
11328;SDS011;5719;42.714;23.732;2023-02-02T05:20:06;8.10;;;4.35;;
11328;SDS011;5719;42.714;23.732;2023-02-02T05:22:33;14.05;;;7.68;;
11328;SDS011;5719;42.714;23.732;2023-02-02T05:25:00;11.55;;;6.63;;
11328;SDS011;5719;42.714;23.732;2023-02-02T05:27:27;12.18;;;7.13;;
11328;SDS011;5719;42.714;23.732;2023-02-02T05:29:54;17.35;;;9.50;;
11328;SDS011;5719;42.714;23.732;2023-02-02T05:32:21;13.25;;;6.97;;
11328;SDS011;5719;42.714;23.732;2023-02-02T05:34:47;8.57;;;5.70;;
11328;SDS011;5719;42.714;23.732;2023-02-02T05:37:16;8.20;;;5.30;;
11328;SDS011;5719;42.714;23.732;2023-02-02T05:39:42;12.10;;;5.38;;
11328;SDS011;5719;42.714;23.732;2023-02-02T05:42:09;10.70;;;5.65;;
11328;SDS011;5719;42.714;23.732;2023-02-02T05:44:36;14.38;;;7.00;;
11328;SDS011;5719;42.714;23.732;2023-02-02T05:47:03;11.95;;;6.00;;
11328;SDS011;5719;42.714;23.732;2023-02-02T05:49:30;12.23;;;5.35;;
11328;SDS011;5719;42.714;23.732;2023-02-02T05:51:57;8.05;;;4.45;;
11328;SDS011;5719;42.714;23.732;2023-02-02T05:54:25;8.45;;;4.57;;
11328;SDS011;5719;42.714;23.732;2023-02-02T05:56:52;8.63;;;4.03;;
11328;SDS011;5719;42.714;23.732;2023-02-02T05:59:20;5.97;;;3.78;;
11328;SDS011;5719;42.714;23.732;2023-02-02T06:01:47;7.18;;;4.40;;
11328;SDS011;5719;42.714;23.732;2023-02-02T06:04:14;5.97;;;3.90;;
11328;SDS011;5719;42.714;23.732;2023-02-02T06:06:41;9.57;;;3.90;;
11328;SDS011;5719;42.714;23.732;2023-02-02T06:09:08;7.10;;;4.30;;
11328;SDS011;5719;42.714;23.732;2023-02-02T06:11:37;9.57;;;4.20;;
11328;SDS011;5719;42.714;23.732;2023-02-02T06:14:04;8.70;;;4.10;;
11328;SDS011;5719;42.714;23.732;2023-02-02T06:16:31;6.00;;;3.70;;
11328;SDS011;5719;42.714;23.732;2023-02-02T06:18:58;6.43;;;4.25;;
11328;SDS011;5719;42.714;23.732;2023-02-02T06:21:25;12.05;;;5.20;;
11328;SDS011;5719;42.714;23.732;2023-02-02T06:23:55;8.27;;;4.53;;
11328;SDS011;5719;42.714;23.732;2023-02-02T06:26:23;10.63;;;4.63;;
11328;SDS011;5719;42.714;23.732;2023-02-02T06:28:52;8.32;;;4.95;;
11328;SDS011;5719;42.714;23.732;2023-02-02T06:31:20;10.45;;;6.00;;
11328;SDS011;5719;42.714;23.732;2023-02-02T06:33:51;25.73;;;13.80;;
11328;SDS011;5719;42.714;23.732;2023-02-02T06:36:20;20.38;;;13.05;;
11328;SDS011;5719;42.714;23.732;2023-02-02T06:38:48;24.23;;;13.30;;
11328;SDS011;5719;42.714;23.732;2023-02-02T06:41:15;22.92;;;10.93;;
11328;SDS011;5719;42.714;23.732;2023-02-02T06:43:42;20.85;;;11.60;;
11328;SDS011;5719;42.714;23.732;2023-02-02T06:46:11;30.17;;;14.88;;
11328;SDS011;5719;42.714;23.732;2023-02-02T06:48:37;29.23;;;15.80;;
11328;SDS011;5719;42.714;23.732;2023-02-02T06:51:05;156.75;;;55.05;;
11328;SDS011;5719;42.714;23.732;2023-02-02T06:53:32;70.32;;;27.38;;
11328;SDS011;5719;42.714;23.732;2023-02-02T06:56:01;77.10;;;31.58;;
11328;SDS011;5719;42.714;23.732;2023-02-02T06:58:29;57.47;;;23.17;;
11328;SDS011;5719;42.714;23.732;2023-02-02T07:01:00;52.33;;;22.48;;
11328;SDS011;5719;42.714;23.732;2023-02-02T07:03:30;45.22;;;19.95;;
11328;SDS011;5719;42.714;23.732;2023-02-02T07:06:08;32.00;;;14.88;;
11328;SDS011;5719;42.714;23.732;2023-02-02T07:08:36;52.22;;;22.88;;
11328;SDS011;5719;42.714;23.732;2023-02-02T07:11:03;42.38;;;18.55;;
11328;SDS011;5719;42.714;23.732;2023-02-02T07:13:30;24.20;;;11.73;;
11328;SDS011;5719;42.714;23.732;2023-02-02T07:15:57;24.60;;;10.90;;
11328;SDS011;5719;42.714;23.732;2023-02-02T07:18:23;13.65;;;6.65;;
11328;SDS011;5719;42.714;23.732;2023-02-02T07:20:52;18.20;;;7.13;;
11328;SDS011;5719;42.714;23.732;2023-02-02T07:23:19;15.57;;;8.10;;
11328;SDS011;5719;42.714;23.732;2023-02-02T07:25:46;23.10;;;11.90;;
11328;SDS011;5719;42.714;23.732;2023-02-02T07:28:12;29.73;;;13.52;;
11328;SDS011;5719;42.714;23.732;2023-02-02T07:30:39;30.75;;;12.07;;
11328;SDS011;5719;42.714;23.732;2023-02-02T07:33:06;24.73;;;11.98;;
11328;SDS011;5719;42.714;23.732;2023-02-02T07:35:34;28.13;;;12.77;;
11328;SDS011;5719;42.714;23.732;2023-02-02T07:38:03;40.60;;;15.02;;
11328;SDS011;5719;42.714;23.732;2023-02-02T07:40:29;24.52;;;14.15;;
11328;SDS011;5719;42.714;23.732;2023-02-02T07:42:56;30.63;;;15.88;;
11328;SDS011;5719;42.714;23.732;2023-02-02T07:45:25;26.70;;;13.52;;
11328;SDS011;5719;42.714;23.732;2023-02-02T07:47:54;21.65;;;11.63;;
11328;SDS011;5719;42.714;23.732;2023-02-02T07:50:22;17.05;;;8.60;;
11328;SDS011;5719;42.714;23.732;2023-02-02T07:52:50;17.85;;;9.40;;
11328;SDS011;5719;42.714;23.732;2023-02-02T07:55:19;13.85;;;7.03;;
11328;SDS011;5719;42.714;23.732;2023-02-02T07:57:46;11.90;;;6.15;;
11328;SDS011;5719;42.714;23.732;2023-02-02T08:00:13;8.52;;;5.28;;
11328;SDS011;5719;42.714;23.732;2023-02-02T08:02:40;9.00;;;5.68;;
11328;SDS011;5719;42.714;23.732;2023-02-02T08:05:08;8.10;;;4.72;;
11328;SDS011;5719;42.714;23.732;2023-02-02T08:07:35;9.13;;;5.10;;
11328;SDS011;5719;42.714;23.732;2023-02-02T08:10:02;11.20;;;5.10;;
11328;SDS011;5719;42.714;23.732;2023-02-02T08:12:30;9.38;;;5.38;;
11328;SDS011;5719;42.714;23.732;2023-02-02T08:14:57;11.70;;;5.43;;
11328;SDS011;5719;42.714;23.732;2023-02-02T08:17:24;9.80;;;4.78;;
11328;SDS011;5719;42.714;23.732;2023-02-02T08:19:51;9.50;;;5.45;;
11328;SDS011;5719;42.714;23.732;2023-02-02T08:22:18;7.93;;;5.50;;
11328;SDS011;5719;42.714;23.732;2023-02-02T08:24:45;9.48;;;5.60;;
11328;SDS011;5719;42.714;23.732;2023-02-02T08:27:12;9.35;;;5.57;;
11328;SDS011;5719;42.714;23.732;2023-02-02T08:29:42;8.27;;;5.40;;
11328;SDS011;5719;42.714;23.732;2023-02-02T08:32:10;9.43;;;5.55;;
11328;SDS011;5719;42.714;23.732;2023-02-02T08:34:39;11.75;;;5.20;;
11328;SDS011;5719;42.714;23.732;2023-02-02T08:37:06;8.90;;;5.70;;
11328;SDS011;5719;42.714;23.732;2023-02-02T08:39:32;9.38;;;6.45;;
11328;SDS011;5719;42.714;23.732;2023-02-02T08:42:00;10.32;;;5.35;;
11328;SDS011;5719;42.714;23.732;2023-02-02T08:44:27;10.43;;;5.63;;
11328;SDS011;5719;42.714;23.732;2023-02-02T08:46:55;9.70;;;5.22;;
11328;SDS011;5719;42.714;23.732;2023-02-02T08:49:22;7.05;;;4.55;;
11328;SDS011;5719;42.714;23.732;2023-02-02T08:51:50;7.82;;;5.03;;
11328;SDS011;5719;42.714;23.732;2023-02-02T08:54:16;9.55;;;4.80;;
11328;SDS011;5719;42.714;23.732;2023-02-02T08:56:43;8.77;;;4.65;;
11328;SDS011;5719;42.714;23.732;2023-02-02T08:59:10;7.20;;;4.22;;
11328;SDS011;5719;42.714;23.732;2023-02-02T09:01:37;8.75;;;4.72;;
11328;SDS011;5719;42.714;23.732;2023-02-02T09:04:06;6.45;;;4.13;;
11328;SDS011;5719;42.714;23.732;2023-02-02T09:06:40;7.63;;;4.80;;
11328;SDS011;5719;42.714;23.732;2023-02-02T09:09:09;8.35;;;4.80;;
11328;SDS011;5719;42.714;23.732;2023-02-02T09:11:37;9.07;;;4.45;;
11328;SDS011;5719;42.714;23.732;2023-02-02T09:14:05;7.22;;;4.55;;
11328;SDS011;5719;42.714;23.732;2023-02-02T09:16:32;9.32;;;4.85;;
11328;SDS011;5719;42.714;23.732;2023-02-02T09:19:00;6.97;;;4.38;;
11328;SDS011;5719;42.714;23.732;2023-02-02T09:21:29;5.63;;;4.07;;
11328;SDS011;5719;42.714;23.732;2023-02-02T09:24:01;11.68;;;4.18;;
11328;SDS011;5719;42.714;23.732;2023-02-02T09:26:32;8.23;;;4.47;;
11328;SDS011;5719;42.714;23.732;2023-02-02T09:28:59;8.45;;;4.03;;
11328;SDS011;5719;42.714;23.732;2023-02-02T09:31:28;9.00;;;3.80;;
11328;SDS011;5719;42.714;23.732;2023-02-02T09:33:58;9.70;;;4.15;;
11328;SDS011;5719;42.714;23.732;2023-02-02T09:36:26;6.55;;;3.97;;
11328;SDS011;5719;42.714;23.732;2023-02-02T09:38:54;12.57;;;4.65;;
11328;SDS011;5719;42.714;23.732;2023-02-02T09:44:31;8.88;;;4.13;;
11328;SDS011;5719;42.714;23.732;2023-02-02T09:47:15;5.03;;;3.90;;
11328;SDS011;5719;42.714;23.732;2023-02-02T09:49:48;8.35;;;4.30;;
11328;SDS011;5719;42.714;23.732;2023-02-02T09:52:23;8.18;;;4.47;;
11328;SDS011;5719;42.714;23.732;2023-02-02T09:54:56;8.73;;;4.30;;
11328;SDS011;5719;42.714;23.732;2023-02-02T09:57:27;7.28;;;3.95;;
11328;SDS011;5719;42.714;23.732;2023-02-02T09:59:58;8.90;;;4.50;;
11328;SDS011;5719;42.714;23.732;2023-02-02T10:02:26;10.05;;;4.68;;
11328;SDS011;5719;42.714;23.732;2023-02-02T10:04:59;7.03;;;4.13;;
11328;SDS011;5719;42.714;23.732;2023-02-02T10:07:33;6.28;;;4.05;;
11328;SDS011;5719;42.714;23.732;2023-02-02T10:10:08;9.95;;;3.92;;
11328;SDS011;5719;42.714;23.732;2023-02-02T10:12:43;10.32;;;4.30;;
11328;SDS011;5719;42.714;23.732;2023-02-02T10:15:17;5.78;;;3.92;;
11328;SDS011;5719;42.714;23.732;2023-02-02T10:17:50;11.30;;;4.20;;
11328;SDS011;5719;42.714;23.732;2023-02-02T10:20:29;7.07;;;4.25;;
11328;SDS011;5719;42.714;23.732;2023-02-02T10:23:07;8.20;;;4.30;;
11328;SDS011;5719;42.714;23.732;2023-02-02T10:25:43;8.77;;;4.18;;
11328;SDS011;5719;42.714;23.732;2023-02-02T10:28:17;11.88;;;4.07;;
11328;SDS011;5719;42.714;23.732;2023-02-02T10:30:46;5.65;;;4.30;;
11328;SDS011;5719;42.714;23.732;2023-02-02T10:33:25;8.73;;;4.22;;
11328;SDS011;5719;42.714;23.732;2023-02-02T10:35:59;8.27;;;4.18;;
11328;SDS011;5719;42.714;23.732;2023-02-02T10:38:37;6.03;;;3.90;;
11328;SDS011;5719;42.714;23.732;2023-02-02T10:41:13;8.48;;;4.70;;
11328;SDS011;5719;42.714;23.732;2023-02-02T10:43:56;6.88;;;4.70;;
11328;SDS011;5719;42.714;23.732;2023-02-02T10:46:36;9.68;;;4.72;;
11328;SDS011;5719;42.714;23.732;2023-02-02T10:49:11;8.43;;;4.82;;
11328;SDS011;5719;42.714;23.732;2023-02-02T10:51:44;9.65;;;5.43;;
11328;SDS011;5719;42.714;23.732;2023-02-02T10:54:24;8.57;;;5.00;;
11328;SDS011;5719;42.714;23.732;2023-02-02T10:57:13;8.90;;;5.25;;
11328;SDS011;5719;42.714;23.732;2023-02-02T10:59:47;9.75;;;5.20;;
11328;SDS011;5719;42.714;23.732;2023-02-02T11:02:27;17.52;;;5.97;;
11328;SDS011;5719;42.714;23.732;2023-02-02T11:04:54;13.25;;;6.60;;
11328;SDS011;5719;42.714;23.732;2023-02-02T11:07:38;14.07;;;6.32;;
11328;SDS011;5719;42.714;23.732;2023-02-02T11:10:05;10.70;;;5.45;;
11328;SDS011;5719;42.714;23.732;2023-02-02T11:12:34;10.80;;;5.88;;
11328;SDS011;5719;42.714;23.732;2023-02-02T11:15:08;15.55;;;6.13;;
11328;SDS011;5719;42.714;23.732;2023-02-02T11:17:50;14.23;;;6.45;;
11328;SDS011;5719;42.714;23.732;2023-02-02T11:20:21;11.18;;;6.00;;
11328;SDS011;5719;42.714;23.732;2023-02-02T11:22:58;8.88;;;6.05;;
11328;SDS011;5719;42.714;23.732;2023-02-02T11:25:29;12.40;;;5.70;;
11328;SDS011;5719;42.714;23.732;2023-02-02T11:28:00;20.38;;;7.30;;
11328;SDS011;5719;42.714;23.732;2023-02-02T11:30:36;16.02;;;6.47;;
11328;SDS011;5719;42.714;23.732;2023-02-02T11:33:18;14.73;;;6.18;;
11328;SDS011;5719;42.714;23.732;2023-02-02T11:35:52;9.60;;;5.63;;
11328;SDS011;5719;42.714;23.732;2023-02-02T11:38:21;13.68;;;7.95;;
11328;SDS011;5719;42.714;23.732;2023-02-02T11:40:51;11.50;;;6.25;;
11328;SDS011;5719;42.714;23.732;2023-02-02T11:43:22;11.45;;;5.97;;
11328;SDS011;5719;42.714;23.732;2023-02-02T11:45:52;13.15;;;6.22;;
11328;SDS011;5719;42.714;23.732;2023-02-02T11:48:25;13.77;;;5.70;;
11328;SDS011;5719;42.714;23.732;2023-02-02T11:50:55;12.85;;;5.57;;
11328;SDS011;5719;42.714;23.732;2023-02-02T11:53:25;10.88;;;5.88;;
11328;SDS011;5719;42.714;23.732;2023-02-02T11:55:55;11.48;;;6.22;;
11328;SDS011;5719;42.714;23.732;2023-02-02T11:58:26;10.52;;;5.38;;
11328;SDS011;5719;42.714;23.732;2023-02-02T12:00:58;12.77;;;5.43;;
11328;SDS011;5719;42.714;23.732;2023-02-02T12:03:31;9.73;;;5.55;;
11328;SDS011;5719;42.714;23.732;2023-02-02T12:06:03;14.98;;;4.85;;
11328;SDS011;5719;42.714;23.732;2023-02-02T12:08:43;12.25;;;5.95;;
11328;SDS011;5719;42.714;23.732;2023-02-02T12:11:13;5.47;;;3.50;;
11328;SDS011;5719;42.714;23.732;2023-02-02T12:13:55;6.47;;;3.72;;
11328;SDS011;5719;42.714;23.732;2023-02-02T12:16:35;5.95;;;3.35;;
11328;SDS011;5719;42.714;23.732;2023-02-02T12:19:15;4.80;;;2.65;;
11328;SDS011;5719;42.714;23.732;2023-02-02T12:21:57;9.10;;;4.05;;
11328;SDS011;5719;42.714;23.732;2023-02-02T12:24:30;8.20;;;3.63;;
11328;SDS011;5719;42.714;23.732;2023-02-02T12:27:10;12.48;;;5.53;;
11328;SDS011;5719;42.714;23.732;2023-02-02T12:29:47;8.02;;;4.10;;
11328;SDS011;5719;42.714;23.732;2023-02-02T12:32:50;8.43;;;3.85;;
11328;SDS011;5719;42.714;23.732;2023-02-02T12:35:39;7.40;;;4.38;;
11328;SDS011;5719;42.714;23.732;2023-02-02T12:38:19;5.38;;;3.50;;
11328;SDS011;5719;42.714;23.732;2023-02-02T12:41:00;7.95;;;4.28;;
11328;SDS011;5719;42.714;23.732;2023-02-02T12:43:41;7.60;;;3.75;;
11328;SDS011;5719;42.714;23.732;2023-02-02T12:49:25;6.30;;;3.65;;
11328;SDS011;5719;42.714;23.732;2023-02-02T12:52:06;10.48;;;5.68;;
11328;SDS011;5719;42.714;23.732;2023-02-02T12:54:46;8.30;;;4.07;;
11328;SDS011;5719;42.714;23.732;2023-02-02T12:57:30;5.05;;;3.03;;
11328;SDS011;5719;42.714;23.732;2023-02-02T13:00:11;4.20;;;2.63;;
11328;SDS011;5719;42.714;23.732;2023-02-02T13:02:58;7.30;;;3.40;;
11328;SDS011;5719;42.714;23.732;2023-02-02T13:05:44;6.07;;;3.35;;
11328;SDS011;5719;42.714;23.732;2023-02-02T13:08:21;5.53;;;3.03;;
11328;SDS011;5719;42.714;23.732;2023-02-02T13:10:54;5.90;;;2.90;;
11328;SDS011;5719;42.714;23.732;2023-02-02T13:13:26;3.25;;;2.30;;
11328;SDS011;5719;42.714;23.732;2023-02-02T13:15:59;5.95;;;2.97;;
11328;SDS011;5719;42.714;23.732;2023-02-02T13:18:33;4.60;;;2.72;;
11328;SDS011;5719;42.714;23.732;2023-02-02T13:21:04;4.55;;;2.30;;
11328;SDS011;5719;42.714;23.732;2023-02-02T13:23:34;1.75;;;1.60;;
11328;SDS011;5719;42.714;23.732;2023-02-02T13:26:06;1.60;;;1.50;;
11328;SDS011;5719;42.714;23.732;2023-02-02T13:28:41;8.30;;;1.70;;
11328;SDS011;5719;42.714;23.732;2023-02-02T13:31:14;1.98;;;1.88;;
11328;SDS011;5719;42.714;23.732;2023-02-02T13:33:47;1.50;;;1.38;;
11328;SDS011;5719;42.714;23.732;2023-02-02T13:36:29;2.63;;;2.20;;
11328;SDS011;5719;42.714;23.732;2023-02-02T13:39:02;3.22;;;1.77;;
11328;SDS011;5719;42.714;23.732;2023-02-02T13:41:40;2.40;;;1.60;;
11328;SDS011;5719;42.714;23.732;2023-02-02T13:44:08;4.60;;;1.50;;
11328;SDS011;5719;42.714;23.732;2023-02-02T13:46:44;3.40;;;1.92;;
11328;SDS011;5719;42.714;23.732;2023-02-02T13:49:20;1.85;;;1.60;;
11328;SDS011;5719;42.714;23.732;2023-02-02T13:51:54;2.28;;;1.67;;
11328;SDS011;5719;42.714;23.732;2023-02-02T13:54:49;3.05;;;1.88;;
11328;SDS011;5719;42.714;23.732;2023-02-02T14:03:04;2.83;;;1.80;;
11328;SDS011;5719;42.714;23.732;2023-02-02T14:06:00;6.63;;;1.65;;
11328;SDS011;5719;42.714;23.732;2023-02-02T14:08:30;3.00;;;1.63;;
11328;SDS011;5719;42.714;23.732;2023-02-02T14:10:58;4.22;;;1.92;;
11328;SDS011;5719;42.714;23.732;2023-02-02T14:13:28;2.88;;;2.00;;
11328;SDS011;5719;42.714;23.732;2023-02-02T14:16:21;4.15;;;2.00;;
11328;SDS011;5719;42.714;23.732;2023-02-02T14:18:54;3.33;;;2.00;;
11328;SDS011;5719;42.714;23.732;2023-02-02T14:24:43;6.93;;;1.80;;
11328;SDS011;5719;42.714;23.732;2023-02-02T14:30:20;3.08;;;1.92;;
11328;SDS011;5719;42.714;23.732;2023-02-02T14:32:52;8.32;;;2.17;;
11328;SDS011;5719;42.714;23.732;2023-02-02T14:35:58;4.15;;;2.25;;
11328;SDS011;5719;42.714;23.732;2023-02-02T14:41:30;4.32;;;2.20;;
11328;SDS011;5719;42.714;23.732;2023-02-02T14:47:41;3.45;;;2.15;;
11328;SDS011;5719;42.714;23.732;2023-02-02T14:50:14;10.68;;;2.40;;
11328;SDS011;5719;42.714;23.732;2023-02-02T14:52:43;3.00;;;2.50;;
11328;SDS011;5719;42.714;23.732;2023-02-02T14:55:21;4.00;;;2.80;;
11328;SDS011;5719;42.714;23.732;2023-02-02T14:57:52;4.35;;;2.75;;
11328;SDS011;5719;42.714;23.732;2023-02-02T15:00:22;5.60;;;2.50;;
11328;SDS011;5719;42.714;23.732;2023-02-02T15:02:53;5.45;;;2.40;;
11328;SDS011;5719;42.714;23.732;2023-02-02T15:08:19;6.57;;;2.55;;
11328;SDS011;5719;42.714;23.732;2023-02-02T15:14:03;3.17;;;2.60;;
11328;SDS011;5719;42.714;23.732;2023-02-02T15:16:38;3.58;;;2.67;;
11328;SDS011;5719;42.714;23.732;2023-02-02T15:19:10;4.68;;;2.42;;
11328;SDS011;5719;42.714;23.732;2023-02-02T15:21:45;3.95;;;3.17;;
11328;SDS011;5719;42.714;23.732;2023-02-02T15:24:16;4.93;;;3.20;;
11328;SDS011;5719;42.714;23.732;2023-02-02T15:26:49;8.75;;;4.95;;
11328;SDS011;5719;42.714;23.732;2023-02-02T15:29:20;4.45;;;3.15;;
11328;SDS011;5719;42.714;23.732;2023-02-02T15:31:58;3.38;;;2.35;;
11328;SDS011;5719;42.714;23.732;2023-02-02T15:34:28;2.75;;;2.20;;
11328;SDS011;5719;42.714;23.732;2023-02-02T15:37:02;3.53;;;1.85;;
11328;SDS011;5719;42.714;23.732;2023-02-02T15:39:32;0.93;;;0.80;;
11328;SDS011;5719;42.714;23.732;2023-02-02T15:42:11;2.58;;;1.20;;